sensor_id;sensor_type;location;lat;lon;timestamp;P1;durP1;ratioP1;P2;durP2;ratioP2
74957;SDS011;63741;42.624;26.276;2023-06-04T00:02:19;6.68;;;3.95;;
74957;SDS011;63741;42.624;26.276;2023-06-04T00:04:46;5.60;;;3.65;;
74957;SDS011;63741;42.624;26.276;2023-06-04T00:07:13;7.50;;;3.53;;
74957;SDS011;63741;42.624;26.276;2023-06-04T00:09:40;10.82;;;3.80;;
74957;SDS011;63741;42.624;26.276;2023-06-04T00:12:07;10.98;;;3.70;;
74957;SDS011;63741;42.624;26.276;2023-06-04T00:14:34;7.80;;;3.80;;
74957;SDS011;63741;42.624;26.276;2023-06-04T00:17:01;7.13;;;3.70;;
74957;SDS011;63741;42.624;26.276;2023-06-04T00:19:28;6.15;;;3.63;;
74957;SDS011;63741;42.624;26.276;2023-06-04T00:21:55;6.95;;;3.50;;
74957;SDS011;63741;42.624;26.276;2023-06-04T00:24:22;5.38;;;3.67;;
74957;SDS011;63741;42.624;26.276;2023-06-04T00:26:49;5.63;;;3.30;;
74957;SDS011;63741;42.624;26.276;2023-06-04T00:29:16;7.72;;;3.42;;
74957;SDS011;63741;42.624;26.276;2023-06-04T00:31:43;10.23;;;3.40;;
74957;SDS011;63741;42.624;26.276;2023-06-04T00:34:10;6.60;;;3.50;;
74957;SDS011;63741;42.624;26.276;2023-06-04T00:36:38;6.05;;;3.42;;
74957;SDS011;63741;42.624;26.276;2023-06-04T00:39:07;8.52;;;3.72;;
74957;SDS011;63741;42.624;26.276;2023-06-04T00:41:34;8.07;;;3.50;;
74957;SDS011;63741;42.624;26.276;2023-06-04T00:44:02;6.88;;;3.50;;
74957;SDS011;63741;42.624;26.276;2023-06-04T00:46:32;6.47;;;3.30;;
74957;SDS011;63741;42.624;26.276;2023-06-04T00:49:03;8.05;;;3.88;;
74957;SDS011;63741;42.624;26.276;2023-06-04T00:51:31;5.75;;;3.63;;
74957;SDS011;63741;42.624;26.276;2023-06-04T00:53:59;8.63;;;3.38;;
74957;SDS011;63741;42.624;26.276;2023-06-04T00:56:28;7.68;;;3.55;;
74957;SDS011;63741;42.624;26.276;2023-06-04T00:58:56;5.47;;;3.25;;
74957;SDS011;63741;42.624;26.276;2023-06-04T01:03:51;6.18;;;3.30;;
74957;SDS011;63741;42.624;26.276;2023-06-04T01:06:44;5.68;;;3.42;;
74957;SDS011;63741;42.624;26.276;2023-06-04T01:09:10;7.22;;;3.35;;
74957;SDS011;63741;42.624;26.276;2023-06-04T01:11:38;7.32;;;3.60;;
74957;SDS011;63741;42.624;26.276;2023-06-04T01:14:06;9.15;;;3.35;;
74957;SDS011;63741;42.624;26.276;2023-06-04T01:16:57;7.53;;;3.28;;
74957;SDS011;63741;42.624;26.276;2023-06-04T01:25:13;8.90;;;3.22;;
74957;SDS011;63741;42.624;26.276;2023-06-04T01:27:50;8.25;;;3.35;;
74957;SDS011;63741;42.624;26.276;2023-06-04T01:30:21;7.93;;;3.55;;
74957;SDS011;63741;42.624;26.276;2023-06-04T01:32:52;6.75;;;3.33;;
74957;SDS011;63741;42.624;26.276;2023-06-04T01:35:22;11.02;;;3.65;;
74957;SDS011;63741;42.624;26.276;2023-06-04T01:37:53;6.43;;;3.63;;
74957;SDS011;63741;42.624;26.276;2023-06-04T01:40:23;6.35;;;3.70;;
74957;SDS011;63741;42.624;26.276;2023-06-04T01:42:52;7.57;;;3.78;;
74957;SDS011;63741;42.624;26.276;2023-06-04T01:45:20;6.03;;;3.42;;
74957;SDS011;63741;42.624;26.276;2023-06-04T01:47:51;5.00;;;3.63;;
74957;SDS011;63741;42.624;26.276;2023-06-04T01:50:18;6.50;;;4.07;;
74957;SDS011;63741;42.624;26.276;2023-06-04T01:52:45;6.95;;;4.20;;
74957;SDS011;63741;42.624;26.276;2023-06-04T01:55:13;9.05;;;4.20;;
74957;SDS011;63741;42.624;26.276;2023-06-04T01:57:42;8.55;;;4.03;;
74957;SDS011;63741;42.624;26.276;2023-06-04T02:00:12;14.65;;;4.15;;
74957;SDS011;63741;42.624;26.276;2023-06-04T02:02:42;11.80;;;4.35;;
74957;SDS011;63741;42.624;26.276;2023-06-04T02:05:11;7.18;;;4.25;;
74957;SDS011;63741;42.624;26.276;2023-06-04T02:07:39;7.80;;;4.00;;
74957;SDS011;63741;42.624;26.276;2023-06-04T02:10:08;7.30;;;4.03;;
74957;SDS011;63741;42.624;26.276;2023-06-04T02:12:37;9.70;;;4.13;;
74957;SDS011;63741;42.624;26.276;2023-06-04T02:15:18;6.75;;;3.92;;
74957;SDS011;63741;42.624;26.276;2023-06-04T02:17:45;4.82;;;3.83;;
74957;SDS011;63741;42.624;26.276;2023-06-04T02:20:14;9.07;;;4.10;;
74957;SDS011;63741;42.624;26.276;2023-06-04T02:22:41;8.40;;;4.05;;
74957;SDS011;63741;42.624;26.276;2023-06-04T02:25:09;8.43;;;3.75;;
74957;SDS011;63741;42.624;26.276;2023-06-04T02:27:36;7.68;;;3.70;;
74957;SDS011;63741;42.624;26.276;2023-06-04T02:30:03;10.65;;;3.80;;
74957;SDS011;63741;42.624;26.276;2023-06-04T02:32:33;7.72;;;3.78;;
74957;SDS011;63741;42.624;26.276;2023-06-04T02:35:03;9.82;;;3.90;;
74957;SDS011;63741;42.624;26.276;2023-06-04T02:37:31;7.25;;;4.10;;
74957;SDS011;63741;42.624;26.276;2023-06-04T02:39:58;10.95;;;4.05;;
74957;SDS011;63741;42.624;26.276;2023-06-04T02:42:25;7.20;;;3.75;;
74957;SDS011;63741;42.624;26.276;2023-06-04T02:44:52;8.90;;;3.72;;
74957;SDS011;63741;42.624;26.276;2023-06-04T02:47:19;8.13;;;4.10;;
74957;SDS011;63741;42.624;26.276;2023-06-04T02:49:46;7.82;;;4.22;;
74957;SDS011;63741;42.624;26.276;2023-06-04T02:52:13;8.90;;;3.90;;
74957;SDS011;63741;42.624;26.276;2023-06-04T02:54:40;10.65;;;4.60;;
74957;SDS011;63741;42.624;26.276;2023-06-04T02:57:07;7.00;;;3.95;;
74957;SDS011;63741;42.624;26.276;2023-06-04T02:59:36;7.72;;;3.67;;
74957;SDS011;63741;42.624;26.276;2023-06-04T03:02:03;11.00;;;3.63;;
74957;SDS011;63741;42.624;26.276;2023-06-04T03:04:31;9.38;;;3.90;;
74957;SDS011;63741;42.624;26.276;2023-06-04T03:07:01;9.52;;;4.15;;
74957;SDS011;63741;42.624;26.276;2023-06-04T03:09:32;6.07;;;3.85;;
74957;SDS011;63741;42.624;26.276;2023-06-04T03:12:00;6.50;;;4.00;;
74957;SDS011;63741;42.624;26.276;2023-06-04T03:14:30;9.18;;;3.88;;
74957;SDS011;63741;42.624;26.276;2023-06-04T03:16:59;9.00;;;4.05;;
74957;SDS011;63741;42.624;26.276;2023-06-04T03:19:44;8.13;;;3.88;;
74957;SDS011;63741;42.624;26.276;2023-06-04T03:22:11;11.82;;;3.83;;
74957;SDS011;63741;42.624;26.276;2023-06-04T03:24:39;7.78;;;3.55;;
74957;SDS011;63741;42.624;26.276;2023-06-04T03:27:07;8.80;;;3.67;;
74957;SDS011;63741;42.624;26.276;2023-06-04T03:29:36;9.05;;;4.03;;
74957;SDS011;63741;42.624;26.276;2023-06-04T03:32:05;8.45;;;3.72;;
74957;SDS011;63741;42.624;26.276;2023-06-04T03:34:33;8.85;;;3.97;;
74957;SDS011;63741;42.624;26.276;2023-06-04T03:37:01;11.77;;;4.22;;
74957;SDS011;63741;42.624;26.276;2023-06-04T03:39:29;9.13;;;4.35;;
74957;SDS011;63741;42.624;26.276;2023-06-04T03:41:58;7.70;;;4.18;;
74957;SDS011;63741;42.624;26.276;2023-06-04T03:44:26;8.60;;;3.80;;
74957;SDS011;63741;42.624;26.276;2023-06-04T03:46:53;8.20;;;4.10;;
74957;SDS011;63741;42.624;26.276;2023-06-04T03:49:20;7.55;;;3.63;;
74957;SDS011;63741;42.624;26.276;2023-06-04T03:51:49;8.13;;;3.83;;
74957;SDS011;63741;42.624;26.276;2023-06-04T03:54:17;9.43;;;3.88;;
74957;SDS011;63741;42.624;26.276;2023-06-04T03:56:47;6.97;;;3.80;;
74957;SDS011;63741;42.624;26.276;2023-06-04T03:59:14;6.60;;;4.00;;
74957;SDS011;63741;42.624;26.276;2023-06-04T04:01:41;7.50;;;4.53;;
74957;SDS011;63741;42.624;26.276;2023-06-04T04:04:09;8.57;;;3.72;;
74957;SDS011;63741;42.624;26.276;2023-06-04T04:06:36;8.25;;;3.85;;
74957;SDS011;63741;42.624;26.276;2023-06-04T04:09:04;8.02;;;4.20;;
74957;SDS011;63741;42.624;26.276;2023-06-04T04:11:33;11.93;;;4.15;;
74957;SDS011;63741;42.624;26.276;2023-06-04T04:14:01;9.10;;;4.55;;
74957;SDS011;63741;42.624;26.276;2023-06-04T04:16:28;8.43;;;4.78;;
74957;SDS011;63741;42.624;26.276;2023-06-04T04:18:55;5.72;;;3.97;;
74957;SDS011;63741;42.624;26.276;2023-06-04T04:21:22;7.88;;;3.92;;
74957;SDS011;63741;42.624;26.276;2023-06-04T04:23:51;7.50;;;4.35;;
74957;SDS011;63741;42.624;26.276;2023-06-04T04:26:19;11.00;;;4.32;;
74957;SDS011;63741;42.624;26.276;2023-06-04T04:28:50;9.57;;;4.05;;
74957;SDS011;63741;42.624;26.276;2023-06-04T04:31:19;6.90;;;3.90;;
74957;SDS011;63741;42.624;26.276;2023-06-04T04:33:49;11.63;;;4.28;;
74957;SDS011;63741;42.624;26.276;2023-06-04T04:36:20;8.43;;;4.53;;
74957;SDS011;63741;42.624;26.276;2023-06-04T04:38:50;8.82;;;4.43;;
74957;SDS011;63741;42.624;26.276;2023-06-04T04:41:27;8.98;;;4.55;;
74957;SDS011;63741;42.624;26.276;2023-06-04T04:44:02;8.07;;;4.35;;
74957;SDS011;63741;42.624;26.276;2023-06-04T04:46:30;9.48;;;4.80;;
74957;SDS011;63741;42.624;26.276;2023-06-04T04:48:57;7.20;;;4.53;;
74957;SDS011;63741;42.624;26.276;2023-06-04T04:51:24;8.40;;;4.25;;
74957;SDS011;63741;42.624;26.276;2023-06-04T04:53:52;8.07;;;4.63;;
74957;SDS011;63741;42.624;26.276;2023-06-04T04:56:22;6.75;;;4.10;;
74957;SDS011;63741;42.624;26.276;2023-06-04T04:58:51;6.03;;;3.95;;
74957;SDS011;63741;42.624;26.276;2023-06-04T05:01:19;6.90;;;3.60;;
74957;SDS011;63741;42.624;26.276;2023-06-04T05:03:46;7.88;;;3.92;;
74957;SDS011;63741;42.624;26.276;2023-06-04T05:06:16;9.23;;;4.28;;
74957;SDS011;63741;42.624;26.276;2023-06-04T05:08:43;8.80;;;4.40;;
74957;SDS011;63741;42.624;26.276;2023-06-04T05:11:12;6.38;;;4.15;;
74957;SDS011;63741;42.624;26.276;2023-06-04T05:13:40;7.20;;;4.38;;
74957;SDS011;63741;42.624;26.276;2023-06-04T05:16:10;7.28;;;4.38;;
74957;SDS011;63741;42.624;26.276;2023-06-04T05:18:41;8.35;;;4.60;;
74957;SDS011;63741;42.624;26.276;2023-06-04T05:21:16;9.88;;;4.65;;
74957;SDS011;63741;42.624;26.276;2023-06-04T05:23:50;7.90;;;4.38;;
74957;SDS011;63741;42.624;26.276;2023-06-04T05:26:21;5.43;;;4.30;;
74957;SDS011;63741;42.624;26.276;2023-06-04T05:28:51;9.68;;;4.65;;
74957;SDS011;63741;42.624;26.276;2023-06-04T05:31:18;10.18;;;4.68;;
74957;SDS011;63741;42.624;26.276;2023-06-04T05:33:45;5.40;;;4.43;;
74957;SDS011;63741;42.624;26.276;2023-06-04T05:36:17;9.65;;;4.63;;
74957;SDS011;63741;42.624;26.276;2023-06-04T05:38:51;6.72;;;4.43;;
74957;SDS011;63741;42.624;26.276;2023-06-04T05:41:30;8.85;;;4.82;;
74957;SDS011;63741;42.624;26.276;2023-06-04T05:43:59;9.13;;;5.10;;
74957;SDS011;63741;42.624;26.276;2023-06-04T05:46:27;6.18;;;5.30;;
74957;SDS011;63741;42.624;26.276;2023-06-04T05:48:54;7.65;;;5.50;;
74957;SDS011;63741;42.624;26.276;2023-06-04T05:51:23;8.13;;;5.47;;
74957;SDS011;63741;42.624;26.276;2023-06-04T05:53:50;7.30;;;4.88;;
74957;SDS011;63741;42.624;26.276;2023-06-04T05:56:17;6.68;;;4.65;;
74957;SDS011;63741;42.624;26.276;2023-06-04T05:58:50;8.52;;;5.18;;
74957;SDS011;63741;42.624;26.276;2023-06-04T06:01:18;6.22;;;4.70;;
74957;SDS011;63741;42.624;26.276;2023-06-04T06:03:45;11.15;;;4.97;;
74957;SDS011;63741;42.624;26.276;2023-06-04T06:06:13;9.35;;;4.95;;
74957;SDS011;63741;42.624;26.276;2023-06-04T06:08:40;9.95;;;5.38;;
74957;SDS011;63741;42.624;26.276;2023-06-04T06:11:07;8.90;;;5.05;;
74957;SDS011;63741;42.624;26.276;2023-06-04T06:13:37;6.57;;;5.22;;
74957;SDS011;63741;42.624;26.276;2023-06-04T06:16:05;5.85;;;4.75;;
74957;SDS011;63741;42.624;26.276;2023-06-04T06:18:32;7.03;;;4.75;;
74957;SDS011;63741;42.624;26.276;2023-06-04T06:20:59;6.75;;;4.60;;
74957;SDS011;63741;42.624;26.276;2023-06-04T06:23:27;11.10;;;5.22;;
74957;SDS011;63741;42.624;26.276;2023-06-04T06:25:55;11.85;;;5.57;;
74957;SDS011;63741;42.624;26.276;2023-06-04T06:28:25;11.52;;;5.13;;
74957;SDS011;63741;42.624;26.276;2023-06-04T06:30:53;10.20;;;4.90;;
74957;SDS011;63741;42.624;26.276;2023-06-04T06:33:20;8.77;;;4.20;;
74957;SDS011;63741;42.624;26.276;2023-06-04T06:35:48;7.90;;;4.00;;
74957;SDS011;63741;42.624;26.276;2023-06-04T06:38:15;6.57;;;3.33;;
74957;SDS011;63741;42.624;26.276;2023-06-04T06:40:44;10.43;;;3.35;;
74957;SDS011;63741;42.624;26.276;2023-06-04T06:43:11;5.22;;;3.20;;
74957;SDS011;63741;42.624;26.276;2023-06-04T06:45:38;8.38;;;3.10;;
74957;SDS011;63741;42.624;26.276;2023-06-04T06:48:05;5.47;;;3.28;;
74957;SDS011;63741;42.624;26.276;2023-06-04T06:50:32;9.98;;;3.30;;
74957;SDS011;63741;42.624;26.276;2023-06-04T06:53:02;8.60;;;3.58;;
74957;SDS011;63741;42.624;26.276;2023-06-04T06:55:29;6.40;;;3.75;;
74957;SDS011;63741;42.624;26.276;2023-06-04T06:57:56;10.35;;;3.42;;
74957;SDS011;63741;42.624;26.276;2023-06-04T07:00:25;6.22;;;3.38;;
74957;SDS011;63741;42.624;26.276;2023-06-04T07:02:53;10.35;;;3.88;;
74957;SDS011;63741;42.624;26.276;2023-06-04T07:05:21;9.35;;;3.83;;
74957;SDS011;63741;42.624;26.276;2023-06-04T07:07:48;11.43;;;3.90;;
74957;SDS011;63741;42.624;26.276;2023-06-04T07:10:15;8.55;;;3.83;;
74957;SDS011;63741;42.624;26.276;2023-06-04T07:12:42;7.15;;;3.78;;
74957;SDS011;63741;42.624;26.276;2023-06-04T07:15:09;6.80;;;3.65;;
74957;SDS011;63741;42.624;26.276;2023-06-04T07:17:36;10.38;;;4.15;;
74957;SDS011;63741;42.624;26.276;2023-06-04T07:20:03;6.05;;;3.90;;
74957;SDS011;63741;42.624;26.276;2023-06-04T07:22:33;5.95;;;3.78;;
74957;SDS011;63741;42.624;26.276;2023-06-04T07:25:01;8.77;;;3.83;;
74957;SDS011;63741;42.624;26.276;2023-06-04T07:27:28;7.93;;;3.90;;
74957;SDS011;63741;42.624;26.276;2023-06-04T07:29:54;7.72;;;4.22;;
74957;SDS011;63741;42.624;26.276;2023-06-04T07:32:21;7.25;;;4.05;;
74957;SDS011;63741;42.624;26.276;2023-06-04T07:34:48;7.22;;;3.75;;
74957;SDS011;63741;42.624;26.276;2023-06-04T07:37:15;7.20;;;4.13;;
74957;SDS011;63741;42.624;26.276;2023-06-04T07:39:42;8.65;;;3.65;;
74957;SDS011;63741;42.624;26.276;2023-06-04T07:42:09;8.48;;;3.83;;
74957;SDS011;63741;42.624;26.276;2023-06-04T07:44:36;6.53;;;3.78;;
74957;SDS011;63741;42.624;26.276;2023-06-04T07:47:05;11.40;;;4.00;;
74957;SDS011;63741;42.624;26.276;2023-06-04T07:49:32;7.45;;;3.95;;
74957;SDS011;63741;42.624;26.276;2023-06-04T07:51:58;5.72;;;3.65;;
74957;SDS011;63741;42.624;26.276;2023-06-04T07:54:26;5.72;;;3.55;;
74957;SDS011;63741;42.624;26.276;2023-06-04T07:56:53;7.80;;;3.80;;
74957;SDS011;63741;42.624;26.276;2023-06-04T07:59:23;6.32;;;4.63;;
74957;SDS011;63741;42.624;26.276;2023-06-04T08:01:50;7.65;;;4.47;;
74957;SDS011;63741;42.624;26.276;2023-06-04T08:04:20;7.15;;;4.60;;
74957;SDS011;63741;42.624;26.276;2023-06-04T08:06:47;9.88;;;4.13;;
74957;SDS011;63741;42.624;26.276;2023-06-04T08:09:16;6.55;;;4.65;;
74957;SDS011;63741;42.624;26.276;2023-06-04T08:11:43;9.55;;;4.97;;
74957;SDS011;63741;42.624;26.276;2023-06-04T08:14:11;10.10;;;5.50;;
74957;SDS011;63741;42.624;26.276;2023-06-04T08:16:39;7.90;;;3.97;;
74957;SDS011;63741;42.624;26.276;2023-06-04T08:19:07;8.07;;;4.50;;
74957;SDS011;63741;42.624;26.276;2023-06-04T08:21:34;8.82;;;4.80;;
74957;SDS011;63741;42.624;26.276;2023-06-04T08:24:02;8.43;;;4.47;;
74957;SDS011;63741;42.624;26.276;2023-06-04T08:26:30;5.90;;;3.88;;
74957;SDS011;63741;42.624;26.276;2023-06-04T08:28:57;10.45;;;6.38;;
74957;SDS011;63741;42.624;26.276;2023-06-04T08:31:24;7.78;;;4.38;;
74957;SDS011;63741;42.624;26.276;2023-06-04T08:33:51;12.40;;;4.38;;
74957;SDS011;63741;42.624;26.276;2023-06-04T08:36:18;9.07;;;4.55;;
74957;SDS011;63741;42.624;26.276;2023-06-04T08:38:45;6.63;;;3.95;;
74957;SDS011;63741;42.624;26.276;2023-06-04T08:44:18;6.00;;;3.17;;
74957;SDS011;63741;42.624;26.276;2023-06-04T08:46:45;7.90;;;3.83;;
74957;SDS011;63741;42.624;26.276;2023-06-04T08:49:16;7.43;;;4.03;;
74957;SDS011;63741;42.624;26.276;2023-06-04T08:51:45;10.10;;;5.15;;
74957;SDS011;63741;42.624;26.276;2023-06-04T08:54:12;10.65;;;4.63;;
74957;SDS011;63741;42.624;26.276;2023-06-04T08:56:40;8.68;;;4.80;;
74957;SDS011;63741;42.624;26.276;2023-06-04T08:59:09;6.43;;;3.40;;
74957;SDS011;63741;42.624;26.276;2023-06-04T09:01:37;7.43;;;4.45;;
74957;SDS011;63741;42.624;26.276;2023-06-04T09:04:05;9.63;;;3.60;;
74957;SDS011;63741;42.624;26.276;2023-06-04T09:06:38;12.05;;;3.75;;
74957;SDS011;63741;42.624;26.276;2023-06-04T09:09:12;9.02;;;3.70;;
74957;SDS011;63741;42.624;26.276;2023-06-04T09:11:45;11.45;;;3.65;;
74957;SDS011;63741;42.624;26.276;2023-06-04T09:14:17;13.23;;;3.88;;
74957;SDS011;63741;42.624;26.276;2023-06-04T09:16:45;14.05;;;3.72;;
74957;SDS011;63741;42.624;26.276;2023-06-04T09:19:13;17.52;;;4.00;;
74957;SDS011;63741;42.624;26.276;2023-06-04T09:24:19;6.35;;;2.97;;
74957;SDS011;63741;42.624;26.276;2023-06-04T09:26:47;10.43;;;2.75;;
74957;SDS011;63741;42.624;26.276;2023-06-04T09:29:15;7.70;;;3.30;;
74957;SDS011;63741;42.624;26.276;2023-06-04T09:31:46;6.68;;;3.20;;
74957;SDS011;63741;42.624;26.276;2023-06-04T09:34:28;5.53;;;3.00;;
74957;SDS011;63741;42.624;26.276;2023-06-04T09:36:55;6.78;;;3.28;;
74957;SDS011;63741;42.624;26.276;2023-06-04T09:39:23;9.68;;;5.40;;
74957;SDS011;63741;42.624;26.276;2023-06-04T09:41:57;5.70;;;3.40;;
74957;SDS011;63741;42.624;26.276;2023-06-04T09:44:28;4.78;;;3.33;;
74957;SDS011;63741;42.624;26.276;2023-06-04T09:46:56;8.52;;;3.05;;
74957;SDS011;63741;42.624;26.276;2023-06-04T09:49:24;4.72;;;3.33;;
74957;SDS011;63741;42.624;26.276;2023-06-04T09:51:51;8.75;;;3.70;;
74957;SDS011;63741;42.624;26.276;2023-06-04T09:54:19;17.20;;;4.07;;
74957;SDS011;63741;42.624;26.276;2023-06-04T09:56:45;9.73;;;3.78;;
74957;SDS011;63741;42.624;26.276;2023-06-04T09:59:12;5.00;;;3.70;;
74957;SDS011;63741;42.624;26.276;2023-06-04T10:01:40;7.30;;;3.40;;
74957;SDS011;63741;42.624;26.276;2023-06-04T10:04:10;13.75;;;4.30;;
74957;SDS011;63741;42.624;26.276;2023-06-04T10:06:40;13.43;;;3.80;;
74957;SDS011;63741;42.624;26.276;2023-06-04T10:09:08;12.27;;;4.03;;
74957;SDS011;63741;42.624;26.276;2023-06-04T10:11:43;14.20;;;3.92;;
74957;SDS011;63741;42.624;26.276;2023-06-04T10:14:22;8.63;;;3.55;;
74957;SDS011;63741;42.624;26.276;2023-06-04T10:16:52;6.97;;;3.83;;
74957;SDS011;63741;42.624;26.276;2023-06-04T10:19:20;7.63;;;4.20;;
74957;SDS011;63741;42.624;26.276;2023-06-04T10:21:47;9.43;;;4.22;;
74957;SDS011;63741;42.624;26.276;2023-06-04T10:24:15;7.90;;;4.30;;
74957;SDS011;63741;42.624;26.276;2023-06-04T10:26:42;18.10;;;4.60;;
74957;SDS011;63741;42.624;26.276;2023-06-04T10:29:10;7.57;;;4.10;;
74957;SDS011;63741;42.624;26.276;2023-06-04T10:31:39;8.95;;;4.72;;
74957;SDS011;63741;42.624;26.276;2023-06-04T10:34:07;8.35;;;3.95;;
74957;SDS011;63741;42.624;26.276;2023-06-04T10:36:42;8.80;;;4.15;;
74957;SDS011;63741;42.624;26.276;2023-06-04T10:39:10;7.20;;;4.00;;
74957;SDS011;63741;42.624;26.276;2023-06-04T10:41:38;8.48;;;4.32;;
74957;SDS011;63741;42.624;26.276;2023-06-04T10:44:05;7.13;;;3.80;;
74957;SDS011;63741;42.624;26.276;2023-06-04T10:46:39;5.60;;;4.07;;
74957;SDS011;63741;42.624;26.276;2023-06-04T10:49:10;9.45;;;4.07;;
74957;SDS011;63741;42.624;26.276;2023-06-04T10:51:41;7.43;;;4.43;;
74957;SDS011;63741;42.624;26.276;2023-06-04T10:54:10;13.07;;;4.57;;
74957;SDS011;63741;42.624;26.276;2023-06-04T10:56:48;57.97;;;6.53;;
74957;SDS011;63741;42.624;26.276;2023-06-04T10:59:16;11.43;;;4.13;;
74957;SDS011;63741;42.624;26.276;2023-06-04T11:01:44;9.05;;;4.50;;
74957;SDS011;63741;42.624;26.276;2023-06-04T11:04:22;11.43;;;4.70;;
74957;SDS011;63741;42.624;26.276;2023-06-04T11:07:02;9.63;;;4.22;;
74957;SDS011;63741;42.624;26.276;2023-06-04T11:09:31;7.28;;;4.00;;
74957;SDS011;63741;42.624;26.276;2023-06-04T11:12:00;6.85;;;3.88;;
74957;SDS011;63741;42.624;26.276;2023-06-04T11:14:29;8.00;;;3.97;;
74957;SDS011;63741;42.624;26.276;2023-06-04T11:16:56;6.82;;;3.75;;
74957;SDS011;63741;42.624;26.276;2023-06-04T11:19:23;10.68;;;4.18;;
74957;SDS011;63741;42.624;26.276;2023-06-04T11:21:50;7.72;;;3.80;;
74957;SDS011;63741;42.624;26.276;2023-06-04T11:24:17;22.85;;;4.32;;
74957;SDS011;63741;42.624;26.276;2023-06-04T11:26:44;10.70;;;3.78;;
74957;SDS011;63741;42.624;26.276;2023-06-04T11:29:31;6.43;;;3.92;;
74957;SDS011;63741;42.624;26.276;2023-06-04T11:31:59;15.70;;;4.60;;
74957;SDS011;63741;42.624;26.276;2023-06-04T11:34:26;6.85;;;3.58;;
74957;SDS011;63741;42.624;26.276;2023-06-04T11:36:55;7.70;;;3.95;;
74957;SDS011;63741;42.624;26.276;2023-06-04T11:39:22;21.23;;;4.25;;
74957;SDS011;63741;42.624;26.276;2023-06-04T11:41:52;7.28;;;4.10;;
74957;SDS011;63741;42.624;26.276;2023-06-04T11:44:20;8.98;;;3.95;;
74957;SDS011;63741;42.624;26.276;2023-06-04T11:46:47;7.22;;;4.00;;
74957;SDS011;63741;42.624;26.276;2023-06-04T11:49:16;10.40;;;3.58;;
74957;SDS011;63741;42.624;26.276;2023-06-04T11:51:49;9.75;;;3.92;;
74957;SDS011;63741;42.624;26.276;2023-06-04T11:54:18;14.52;;;3.47;;
74957;SDS011;63741;42.624;26.276;2023-06-04T11:56:48;6.38;;;3.30;;
74957;SDS011;63741;42.624;26.276;2023-06-04T11:59:16;8.38;;;3.17;;
74957;SDS011;63741;42.624;26.276;2023-06-04T12:01:45;8.38;;;3.20;;
74957;SDS011;63741;42.624;26.276;2023-06-04T12:04:16;4.50;;;2.75;;
74957;SDS011;63741;42.624;26.276;2023-06-04T12:06:53;5.35;;;2.58;;
74957;SDS011;63741;42.624;26.276;2023-06-04T12:09:24;3.75;;;2.60;;
74957;SDS011;63741;42.624;26.276;2023-06-04T12:12:00;5.78;;;2.65;;
74957;SDS011;63741;42.624;26.276;2023-06-04T12:14:28;5.15;;;2.35;;
74957;SDS011;63741;42.624;26.276;2023-06-04T12:19:26;9.57;;;2.70;;
74957;SDS011;63741;42.624;26.276;2023-06-04T12:24:30;8.43;;;2.78;;
74957;SDS011;63741;42.624;26.276;2023-06-04T12:27:09;9.00;;;3.17;;
74957;SDS011;63741;42.624;26.276;2023-06-04T12:29:36;6.53;;;3.10;;
74957;SDS011;63741;42.624;26.276;2023-06-04T12:32:07;8.65;;;3.60;;
74957;SDS011;63741;42.624;26.276;2023-06-04T12:34:41;6.22;;;3.92;;
74957;SDS011;63741;42.624;26.276;2023-06-04T12:37:08;8.50;;;4.07;;
74957;SDS011;63741;42.624;26.276;2023-06-04T12:39:35;8.68;;;5.10;;
74957;SDS011;63741;42.624;26.276;2023-06-04T12:42:06;7.25;;;4.57;;
74957;SDS011;63741;42.624;26.276;2023-06-04T12:44:37;7.45;;;4.38;;
74957;SDS011;63741;42.624;26.276;2023-06-04T12:47:05;9.20;;;3.90;;
74957;SDS011;63741;42.624;26.276;2023-06-04T12:49:33;12.10;;;4.82;;
74957;SDS011;63741;42.624;26.276;2023-06-04T12:52:01;13.27;;;4.97;;
74957;SDS011;63741;42.624;26.276;2023-06-04T12:54:28;8.50;;;4.43;;
74957;SDS011;63741;42.624;26.276;2023-06-04T12:56:55;11.15;;;4.40;;
74957;SDS011;63741;42.624;26.276;2023-06-04T12:59:23;6.80;;;3.92;;
74957;SDS011;63741;42.624;26.276;2023-06-04T13:01:52;6.70;;;3.92;;
74957;SDS011;63741;42.624;26.276;2023-06-04T13:04:19;7.82;;;3.55;;
74957;SDS011;63741;42.624;26.276;2023-06-04T13:06:47;9.43;;;3.72;;
74957;SDS011;63741;42.624;26.276;2023-06-04T13:09:14;7.45;;;4.10;;
74957;SDS011;63741;42.624;26.276;2023-06-04T13:11:42;9.82;;;4.03;;
74957;SDS011;63741;42.624;26.276;2023-06-04T13:14:10;15.60;;;3.85;;
74957;SDS011;63741;42.624;26.276;2023-06-04T13:16:37;8.02;;;4.63;;
74957;SDS011;63741;42.624;26.276;2023-06-04T13:19:05;7.22;;;3.65;;
74957;SDS011;63741;42.624;26.276;2023-06-04T13:21:33;6.85;;;3.30;;
74957;SDS011;63741;42.624;26.276;2023-06-04T13:24:02;9.25;;;4.40;;
74957;SDS011;63741;42.624;26.276;2023-06-04T13:26:29;10.32;;;3.63;;
74957;SDS011;63741;42.624;26.276;2023-06-04T13:28:56;7.10;;;3.38;;
74957;SDS011;63741;42.624;26.276;2023-06-04T13:31:23;7.40;;;3.50;;
74957;SDS011;63741;42.624;26.276;2023-06-04T13:33:50;8.45;;;3.78;;
74957;SDS011;63741;42.624;26.276;2023-06-04T13:36:17;9.10;;;3.70;;
74957;SDS011;63741;42.624;26.276;2023-06-04T13:38:45;5.25;;;3.40;;
74957;SDS011;63741;42.624;26.276;2023-06-04T13:41:11;17.27;;;4.03;;
74957;SDS011;63741;42.624;26.276;2023-06-04T13:43:38;17.67;;;4.03;;
74957;SDS011;63741;42.624;26.276;2023-06-04T13:46:05;21.63;;;4.28;;
74957;SDS011;63741;42.624;26.276;2023-06-04T13:48:32;16.70;;;3.53;;
74957;SDS011;63741;42.624;26.276;2023-06-04T13:50:59;7.18;;;2.95;;
74957;SDS011;63741;42.624;26.276;2023-06-04T13:53:26;4.78;;;3.20;;
74957;SDS011;63741;42.624;26.276;2023-06-04T13:55:53;8.63;;;3.35;;
74957;SDS011;63741;42.624;26.276;2023-06-04T13:58:27;3.75;;;2.75;;
74957;SDS011;63741;42.624;26.276;2023-06-04T14:00:54;29.70;;;4.30;;
74957;SDS011;63741;42.624;26.276;2023-06-04T14:03:21;10.65;;;3.80;;
74957;SDS011;63741;42.624;26.276;2023-06-04T14:05:49;5.13;;;2.95;;
74957;SDS011;63741;42.624;26.276;2023-06-04T14:08:15;5.88;;;2.45;;
74957;SDS011;63741;42.624;26.276;2023-06-04T14:10:42;3.53;;;2.28;;
74957;SDS011;63741;42.624;26.276;2023-06-04T14:13:09;3.10;;;2.30;;
74957;SDS011;63741;42.624;26.276;2023-06-04T14:15:37;6.57;;;2.58;;
74957;SDS011;63741;42.624;26.276;2023-06-04T14:18:04;3.75;;;2.25;;
74957;SDS011;63741;42.624;26.276;2023-06-04T14:20:31;10.40;;;2.67;;
74957;SDS011;63741;42.624;26.276;2023-06-04T14:22:58;5.60;;;2.20;;
74957;SDS011;63741;42.624;26.276;2023-06-04T14:25:26;6.80;;;2.50;;
74957;SDS011;63741;42.624;26.276;2023-06-04T14:27:54;4.78;;;2.45;;
74957;SDS011;63741;42.624;26.276;2023-06-04T14:30:21;4.57;;;2.20;;
74957;SDS011;63741;42.624;26.276;2023-06-04T14:32:48;4.15;;;2.17;;
74957;SDS011;63741;42.624;26.276;2023-06-04T14:35:15;2.95;;;2.00;;
74957;SDS011;63741;42.624;26.276;2023-06-04T14:37:42;5.88;;;2.38;;
74957;SDS011;63741;42.624;26.276;2023-06-04T14:40:09;4.57;;;2.00;;
74957;SDS011;63741;42.624;26.276;2023-06-04T14:42:36;7.50;;;2.30;;
74957;SDS011;63741;42.624;26.276;2023-06-04T14:45:03;4.13;;;2.30;;
74957;SDS011;63741;42.624;26.276;2023-06-04T14:47:31;7.22;;;2.38;;
74957;SDS011;63741;42.624;26.276;2023-06-04T14:49:58;6.32;;;2.05;;
74957;SDS011;63741;42.624;26.276;2023-06-04T14:52:25;5.57;;;2.45;;
74957;SDS011;63741;42.624;26.276;2023-06-04T14:54:52;3.70;;;2.53;;
74957;SDS011;63741;42.624;26.276;2023-06-04T14:57:21;5.75;;;2.40;;
74957;SDS011;63741;42.624;26.276;2023-06-04T14:59:48;5.18;;;2.25;;